Delta Poseidon — SVBF6 — position and weather

sailwx.info

Track history (hours):
 
Tides and Currents Weather Stations Pressure Air Temp Water Temp Dewpoint Dewpoint Depression Visibility Wind Speed Wind Dir Waves Ship Positions

Delta Poseidon

Last reported at 2016-Sep-08 02:33 UTC. Time now 2016-Sep-25 14:04 UTC.
Position N 31°29' E 032°19'.
Warning: this ship's position is 17 days out of date.

Length 274 m; draft 15.6 m.

Type: Tanker. MMSI: 241086000.

Date/timePositionNaut miles runAvg speedWind from/ knotsBaromVisibWave heightAir tempDewpointWater temp
2016-Sep-08 02:33N 31°29' E 032°19'0 0.0
2016-Sep-07 17:25N 31°28' E 032°18'  
2016-Sep-04 13:08N 35°40' E 032°55'  
2016-Sep-01 01:27N 36°24' E 015°03'1213.4
2016-Sep-01 00:33N 36°24' E 014°48'1313.5
2016-Aug-31 23:33N 36°24' E 014°31'1413.6
2016-Aug-31 22:33N 36°24' E 014°14'1413.6
2016-Aug-31 21:34N 36°24' E 013°57'1413.9
2016-Aug-31 20:33N 36°29' E 013°41'1413.9
2016-Aug-31 19:33N 36°34' E 013°25'1413.8
2016-Aug-31 18:33N 36°39' E 013°09'1413.6
2016-Aug-31 17:33N 36°44' E 012°53'1313.5
2016-Aug-31 16:33N 36°48' E 012°37'1413.7
2016-Aug-31 15:33N 36°54' E 012°21'1414.2
2016-Aug-31 14:33N 36°59' E 012°05'1413.6
2016-Aug-31 13:33N 37°05' E 011°49'1413.7
2016-Aug-31 12:33N 37°12' E 011°34'11013.2
2016-Aug-31 04:14N 37°39' E 009°20'30212.2
2016-Aug-30 03:33N 37°15' E 003°01'10 9.7
2016-Aug-30 02:33N 37°13' E 002°49'10 9.6
2016-Aug-30 01:33N 37°11' E 002°38'9 9.4
2016-Aug-30 00:33N 37°09' E 002°26'9 9.4
2016-Aug-29 23:33N 37°07' E 002°15'10 9.5
2016-Aug-29 22:33N 37°05' E 002°03'10 9.7
2016-Aug-29 21:33N 37°03' E 001°51'1010.0
2016-Aug-29 20:33N 37°01' E 001°39'1010.0
2016-Aug-29 19:33N 36°59' E 001°26'10 9.8
2016-Aug-29 18:33N 36°57' E 001°14'10 9.4
2016-Aug-29 17:31N 36°55' E 001°02'32 9.4
2016-Aug-29 14:08N 36°48' E 000°24'6 9.5
2016-Aug-29 13:33N 36°47' E 000°17'9 9.4
2016-Aug-29 12:33N 36°45' E 000°05'9 8.8
2016-Aug-29 11:33N 36°43' W 000°05'9 8.9
2016-Aug-29 10:33N 36°41' W 000°16'12 9.2
2016-Aug-29 09:16N 36°39' W 000°31'6 9.0
2016-Aug-29 08:33N 36°37' W 000°38'9 9.5
2016-Aug-29 07:33N 36°34' W 000°50'10 9.5
2016-Aug-29 06:33N 36°33' W 001°01'10 9.6
2016-Aug-29 05:33N 36°31' W 001°13'9 9.5
2016-Aug-29 04:33N 36°29' W 001°25'10 9.7
2016-Aug-29 03:33N 36°27' W 001°36'10 9.7
2016-Aug-29 02:34N 36°25' W 001°48'  
Track history (hours):
 
Tides and Currents Weather Stations Pressure Air Temp Water Temp Dewpoint Dewpoint Depression Visibility Wind Speed Wind Dir Waves Ship Positions

Delta Poseidon

Last reported at 2016-Sep-08 02:33 UTC. Time now 2016-Sep-25 14:04 UTC.
Position N 31°29' E 032°19'.
Warning: this ship's position is 17 days out of date.

Length 274 m; draft 15.6 m.

Type: Tanker. MMSI: 241086000.

Date/timePositionNaut miles runAvg speedWind from/ knotsBaromVisibWave heightAir tempDewpointWater temp
2016-Sep-08 02:33N 31°29' E 032°19'0 0.0
2016-Sep-07 17:25N 31°28' E 032°18'  
2016-Sep-04 13:08N 35°40' E 032°55'  
2016-Sep-01 01:27N 36°24' E 015°03'1213.4
2016-Sep-01 00:33N 36°24' E 014°48'1313.5
2016-Aug-31 23:33N 36°24' E 014°31'1413.6
2016-Aug-31 22:33N 36°24' E 014°14'1413.6
2016-Aug-31 21:34N 36°24' E 013°57'1413.9
2016-Aug-31 20:33N 36°29' E 013°41'1413.9
2016-Aug-31 19:33N 36°34' E 013°25'1413.8
2016-Aug-31 18:33N 36°39' E 013°09'1413.6
2016-Aug-31 17:33N 36°44' E 012°53'1313.5
2016-Aug-31 16:33N 36°48' E 012°37'1413.7
2016-Aug-31 15:33N 36°54' E 012°21'1414.2
2016-Aug-31 14:33N 36°59' E 012°05'1413.6
2016-Aug-31 13:33N 37°05' E 011°49'1413.7
2016-Aug-31 12:33N 37°12' E 011°34'11013.2
2016-Aug-31 04:14N 37°39' E 009°20'30212.2
2016-Aug-30 03:33N 37°15' E 003°01'10 9.7
2016-Aug-30 02:33N 37°13' E 002°49'10 9.6
2016-Aug-30 01:33N 37°11' E 002°38'9 9.4
2016-Aug-30 00:33N 37°09' E 002°26'9 9.4
2016-Aug-29 23:33N 37°07' E 002°15'10 9.5
2016-Aug-29 22:33N 37°05' E 002°03'10 9.7
2016-Aug-29 21:33N 37°03' E 001°51'1010.0
2016-Aug-29 20:33N 37°01' E 001°39'1010.0
2016-Aug-29 19:33N 36°59' E 001°26'10 9.8
2016-Aug-29 18:33N 36°57' E 001°14'10 9.4
2016-Aug-29 17:31N 36°55' E 001°02'32 9.4
2016-Aug-29 14:08N 36°48' E 000°24'6 9.5
2016-Aug-29 13:33N 36°47' E 000°17'9 9.4
2016-Aug-29 12:33N 36°45' E 000°05'9 8.8
2016-Aug-29 11:33N 36°43' W 000°05'9 8.9
2016-Aug-29 10:33N 36°41' W 000°16'12 9.2
2016-Aug-29 09:16N 36°39' W 000°31'6 9.0
2016-Aug-29 08:33N 36°37' W 000°38'9 9.5
2016-Aug-29 07:33N 36°34' W 000°50'10 9.5
2016-Aug-29 06:33N 36°33' W 001°01'10 9.6
2016-Aug-29 05:33N 36°31' W 001°13'9 9.5
2016-Aug-29 04:33N 36°29' W 001°25'10 9.7
2016-Aug-29 03:33N 36°27' W 001°36'10 9.7
2016-Aug-29 02:34N 36°25' W 001°48'  

Dump ship's entire track history